sensor_id;sensor_type;location;lat;lon;timestamp;pressure;altitude;pressure_sealevel;temperature;humidity
56518;BME280;42419;48.760;2.322;2023-03-19T00:01:41;100463.06;;;24.25;36.69
56518;BME280;42419;48.760;2.322;2023-03-19T00:04:06;100482.13;;;24.36;36.49
56518;BME280;42419;48.760;2.322;2023-03-19T00:06:32;100416.72;;;23.92;35.88
56518;BME280;42419;48.760;2.322;2023-03-19T00:08:58;100490.28;;;24.35;35.80
56518;BME280;42419;48.760;2.322;2023-03-19T00:11:23;100501.91;;;24.35;35.59
56518;BME280;42419;48.760;2.322;2023-03-19T00:13:48;100487.88;;;24.30;35.68
56518;BME280;42419;48.760;2.322;2023-03-19T00:16:14;100478.25;;;24.26;35.39
56518;BME280;42419;48.760;2.322;2023-03-19T00:18:39;100498.44;;;24.33;35.64
56518;BME280;42419;48.760;2.322;2023-03-19T00:21:04;100436.22;;;23.95;36.07
56518;BME280;42419;48.760;2.322;2023-03-19T00:23:30;100497.84;;;24.28;35.83
56518;BME280;42419;48.760;2.322;2023-03-19T00:25:55;100502.94;;;24.33;36.02
56518;BME280;42419;48.760;2.322;2023-03-19T00:28:21;100494.78;;;24.34;35.74
56518;BME280;42419;48.760;2.322;2023-03-19T00:30:46;100445.72;;;24.01;36.09
56518;BME280;42419;48.760;2.322;2023-03-19T00:33:11;100471.50;;;24.19;35.69
56518;BME280;42419;48.760;2.322;2023-03-19T00:35:38;100501.13;;;24.33;35.97
56518;BME280;42419;48.760;2.322;2023-03-19T00:38:03;100496.69;;;24.32;35.41
56518;BME280;42419;48.760;2.322;2023-03-19T00:40:28;100502.06;;;24.32;35.97
56518;BME280;42419;48.760;2.322;2023-03-19T00:42:57;100500.38;;;24.31;35.60
56518;BME280;42419;48.760;2.322;2023-03-19T00:45:22;100509.19;;;24.33;35.88
56518;BME280;42419;48.760;2.322;2023-03-19T00:47:48;100433.13;;;23.87;35.76
56518;BME280;42419;48.760;2.322;2023-03-19T00:50:13;100511.88;;;24.33;35.51
56518;BME280;42419;48.760;2.322;2023-03-19T00:52:38;100490.25;;;24.21;35.76
56518;BME280;42419;48.760;2.322;2023-03-19T00:55:04;100497.16;;;24.25;35.16
56518;BME280;42419;48.760;2.322;2023-03-19T00:57:29;100508.31;;;24.33;35.61
56518;BME280;42419;48.760;2.322;2023-03-19T00:59:55;100455.03;;;23.95;35.45
56518;BME280;42419;48.760;2.322;2023-03-19T01:02:20;100518.22;;;24.32;35.36
56518;BME280;42419;48.760;2.322;2023-03-19T01:04:49;100514.78;;;24.30;35.34
56518;BME280;42419;48.760;2.322;2023-03-19T01:07:14;100519.97;;;24.33;35.01
56518;BME280;42419;48.760;2.322;2023-03-19T01:09:40;100515.66;;;24.31;35.28
56518;BME280;42419;48.760;2.322;2023-03-19T01:12:06;100525.34;;;24.33;34.78
56518;BME280;42419;48.760;2.322;2023-03-19T01:14:32;100520.84;;;24.34;35.02
56518;BME280;42419;48.760;2.322;2023-03-19T01:16:57;100527.09;;;24.34;35.11
56518;BME280;42419;48.760;2.322;2023-03-19T01:19:23;100482.25;;;24.05;34.98
56518;BME280;42419;48.760;2.322;2023-03-19T01:21:48;100477.03;;;24.02;34.95
56518;BME280;42419;48.760;2.322;2023-03-19T01:24:14;100535.06;;;24.36;35.10
56518;BME280;42419;48.760;2.322;2023-03-19T01:26:41;100514.97;;;24.27;34.82
56518;BME280;42419;48.760;2.322;2023-03-19T01:29:07;100531.50;;;24.35;35.09
56518;BME280;42419;48.760;2.322;2023-03-19T01:31:33;100519.88;;;24.35;34.57
56518;BME280;42419;48.760;2.322;2023-03-19T01:33:58;100527.88;;;24.36;34.70
56518;BME280;42419;48.760;2.322;2023-03-19T01:36:24;100524.38;;;24.34;34.48
56518;BME280;42419;48.760;2.322;2023-03-19T01:38:50;100531.41;;;24.37;34.76
56518;BME280;42419;48.760;2.322;2023-03-19T01:41:15;100518.41;;;24.29;34.94
56518;BME280;42419;48.760;2.322;2023-03-19T01:43:41;100518.41;;;24.29;34.92
56518;BME280;42419;48.760;2.322;2023-03-19T01:46:17;100519.78;;;24.36;34.75
56518;BME280;42419;48.760;2.322;2023-03-19T01:48:50;100518.13;;;24.34;34.50
56518;BME280;42419;48.760;2.322;2023-03-19T01:51:22;100524.19;;;24.37;34.12
56518;BME280;42419;48.760;2.322;2023-03-19T01:53:52;100528.63;;;24.38;34.25
56518;BME280;42419;48.760;2.322;2023-03-19T01:56:27;100548.25;;;24.40;34.25
56518;BME280;42419;48.760;2.322;2023-03-19T01:58:57;100537.47;;;24.40;34.16
56518;BME280;42419;48.760;2.322;2023-03-19T02:01:26;100535.75;;;24.39;34.61
56518;BME280;42419;48.760;2.322;2023-03-19T02:03:52;100463.00;;;23.97;34.52
56518;BME280;42419;48.760;2.322;2023-03-19T02:06:19;100529.41;;;24.40;34.53
56518;BME280;42419;48.760;2.322;2023-03-19T02:08:46;100521.78;;;24.33;34.19
56518;BME280;42419;48.760;2.322;2023-03-19T02:11:12;100524.03;;;24.40;33.88
56518;BME280;42419;48.760;2.322;2023-03-19T02:13:38;100497.16;;;24.25;34.59
56518;BME280;42419;48.760;2.322;2023-03-19T02:16:03;100486.69;;;24.20;34.29
56518;BME280;42419;48.760;2.322;2023-03-19T02:18:29;100516.81;;;24.41;33.90
56518;BME280;42419;48.760;2.322;2023-03-19T02:26:01;100492.19;;;24.33;34.09
56518;BME280;42419;48.760;2.322;2023-03-19T02:28:28;100481.69;;;24.28;34.28
56518;BME280;42419;48.760;2.322;2023-03-19T02:30:54;100513.94;;;24.44;33.58
56518;BME280;42419;48.760;2.322;2023-03-19T02:33:19;100516.50;;;24.45;33.71
56518;BME280;42419;48.760;2.322;2023-03-19T02:35:47;100508.44;;;24.45;33.53
56518;BME280;42419;48.760;2.322;2023-03-19T02:38:15;100512.88;;;24.46;33.83
56518;BME280;42419;48.760;2.322;2023-03-19T02:40:46;100533.44;;;24.47;33.61
56518;BME280;42419;48.760;2.322;2023-03-19T02:43:13;100524.03;;;24.40;33.71
56518;BME280;42419;48.760;2.322;2023-03-19T02:45:39;100533.53;;;24.46;33.47
56518;BME280;42419;48.760;2.322;2023-03-19T02:48:05;100537.97;;;24.47;34.03
56518;BME280;42419;48.760;2.322;2023-03-19T02:50:30;100535.28;;;24.47;33.99
56518;BME280;42419;48.760;2.322;2023-03-19T02:52:56;100509.88;;;24.37;33.68
56518;BME280;42419;48.760;2.322;2023-03-19T02:55:21;100524.44;;;24.48;33.73
56518;BME280;42419;48.760;2.322;2023-03-19T02:57:46;100517.66;;;24.41;33.36
56518;BME280;42419;48.760;2.322;2023-03-19T03:00:12;100459.00;;;24.04;33.23
56518;BME280;42419;48.760;2.322;2023-03-19T03:02:38;100529.88;;;24.47;33.69
56518;BME280;42419;48.760;2.322;2023-03-19T03:05:04;100533.41;;;24.49;33.18
56518;BME280;42419;48.760;2.322;2023-03-19T03:07:30;100526.31;;;24.46;33.68
56518;BME280;42419;48.760;2.322;2023-03-19T03:09:56;100529.97;;;24.45;33.55
56518;BME280;42419;48.760;2.322;2023-03-19T03:12:22;100468.53;;;24.09;33.60
56518;BME280;42419;48.760;2.322;2023-03-19T03:14:47;100534.50;;;24.45;33.60
56518;BME280;42419;48.760;2.322;2023-03-19T03:17:13;100537.09;;;24.46;33.87
56518;BME280;42419;48.760;2.322;2023-03-19T03:19:39;100538.16;;;24.44;33.25
56518;BME280;42419;48.760;2.322;2023-03-19T03:22:04;100535.34;;;24.45;33.12
56518;BME280;42419;48.760;2.322;2023-03-19T03:24:30;100531.03;;;24.43;33.18
56518;BME280;42419;48.760;2.322;2023-03-19T03:26:56;100534.50;;;24.45;33.70
56518;BME280;42419;48.760;2.322;2023-03-19T03:29:21;100531.81;;;24.45;33.60
56518;BME280;42419;48.760;2.322;2023-03-19T03:31:47;100527.47;;;24.42;33.60
56518;BME280;42419;48.760;2.322;2023-03-19T03:34:12;100541.72;;;24.44;33.05
56518;BME280;42419;48.760;2.322;2023-03-19T03:36:38;100534.50;;;24.45;33.61
56518;BME280;42419;48.760;2.322;2023-03-19T03:39:03;100468.03;;;24.03;33.51
56518;BME280;42419;48.760;2.322;2023-03-19T03:41:29;100536.34;;;24.44;33.55
56518;BME280;42419;48.760;2.322;2023-03-19T03:43:54;100473.41;;;24.03;33.39
56518;BME280;42419;48.760;2.322;2023-03-19T03:46:20;100543.75;;;24.41;33.17
56518;BME280;42419;48.760;2.322;2023-03-19T03:48:45;100529.19;;;24.29;33.10
56518;BME280;42419;48.760;2.322;2023-03-19T03:51:13;100552.56;;;24.43;33.06
56518;BME280;42419;48.760;2.322;2023-03-19T03:53:38;100552.56;;;24.43;33.38
56518;BME280;42419;48.760;2.322;2023-03-19T03:56:04;100554.31;;;24.44;32.98
56518;BME280;42419;48.760;2.322;2023-03-19T03:58:30;100544.00;;;24.36;32.88
56518;BME280;42419;48.760;2.322;2023-03-19T04:00:55;100549.88;;;24.43;33.04
56518;BME280;42419;48.760;2.322;2023-03-19T04:03:21;100562.38;;;24.44;33.42
56518;BME280;42419;48.760;2.322;2023-03-19T04:05:48;100550.16;;;24.38;32.92
56518;BME280;42419;48.760;2.322;2023-03-19T04:08:13;100565.94;;;24.44;33.00
56518;BME280;42419;48.760;2.322;2023-03-19T04:10:40;100507.72;;;24.13;32.92
56518;BME280;42419;48.760;2.322;2023-03-19T04:13:07;100553.25;;;24.46;32.94
56518;BME280;42419;48.760;2.322;2023-03-19T04:15:33;100490.22;;;24.06;32.74
56518;BME280;42419;48.760;2.322;2023-03-19T04:17:58;100560.56;;;24.44;33.18
56518;BME280;42419;48.760;2.322;2023-03-19T04:20:24;100558.81;;;24.43;32.80
56518;BME280;42419;48.760;2.322;2023-03-19T04:22:49;100556.75;;;24.48;32.95
56518;BME280;42419;48.760;2.322;2023-03-19T04:25:15;100563.00;;;24.49;32.95
56518;BME280;42419;48.760;2.322;2023-03-19T04:27:41;100561.25;;;24.48;32.56
56518;BME280;42419;48.760;2.322;2023-03-19T04:30:07;100572.69;;;24.51;33.15
56518;BME280;42419;48.760;2.322;2023-03-19T04:32:33;100567.41;;;24.50;33.49
56518;BME280;42419;48.760;2.322;2023-03-19T04:34:59;100568.38;;;24.49;33.10
56518;BME280;42419;48.760;2.322;2023-03-19T04:37:25;100559.31;;;24.50;33.04
56518;BME280;42419;48.760;2.322;2023-03-19T04:39:51;100553.09;;;24.49;32.60
56518;BME280;42419;48.760;2.322;2023-03-19T04:42:18;100561.25;;;24.48;32.70
56518;BME280;42419;48.760;2.322;2023-03-19T04:44:44;100567.41;;;24.50;32.60
56518;BME280;42419;48.760;2.322;2023-03-19T04:47:09;100553.63;;;24.40;32.58
56518;BME280;42419;48.760;2.322;2023-03-19T04:49:34;100554.50;;;24.41;33.07
56518;BME280;42419;48.760;2.322;2023-03-19T04:52:01;100574.53;;;24.51;32.46
56518;BME280;42419;48.760;2.322;2023-03-19T04:54:26;100557.06;;;24.42;33.04
56518;BME280;42419;48.760;2.322;2023-03-19T04:56:52;100571.84;;;24.51;33.09
56518;BME280;42419;48.760;2.322;2023-03-19T04:59:17;100565.59;;;24.50;32.83
56518;BME280;42419;48.760;2.322;2023-03-19T05:01:43;100567.53;;;24.48;32.96
56518;BME280;42419;48.760;2.322;2023-03-19T05:04:08;100506.28;;;24.08;32.56
56518;BME280;42419;48.760;2.322;2023-03-19T05:06:34;100583.56;;;24.50;32.90
56518;BME280;42419;48.760;2.322;2023-03-19T05:09:00;100557.75;;;24.32;32.71
56518;BME280;42419;48.760;2.322;2023-03-19T05:11:26;100563.69;;;24.37;32.82
56518;BME280;42419;48.760;2.322;2023-03-19T05:13:51;100570.44;;;24.44;32.50
56518;BME280;42419;48.760;2.322;2023-03-19T05:16:17;100581.72;;;24.50;32.77
56518;BME280;42419;48.760;2.322;2023-03-19T05:18:42;100583.81;;;24.45;32.53
56518;BME280;42419;48.760;2.322;2023-03-19T05:21:11;100571.50;;;24.41;32.61
56518;BME280;42419;48.760;2.322;2023-03-19T05:23:37;100581.03;;;24.47;32.78
56518;BME280;42419;48.760;2.322;2023-03-19T05:26:03;100590.69;;;24.51;32.75
56518;BME280;42419;48.760;2.322;2023-03-19T05:28:28;100594.25;;;24.51;32.71
56518;BME280;42419;48.760;2.322;2023-03-19T05:30:54;100593.38;;;24.51;32.28
56518;BME280;42419;48.760;2.322;2023-03-19T05:33:19;100525.84;;;24.10;32.40
56518;BME280;42419;48.760;2.322;2023-03-19T05:35:46;100577.25;;;24.35;32.86
56518;BME280;42419;48.760;2.322;2023-03-19T05:38:11;100598.00;;;24.49;32.62
56518;BME280;42419;48.760;2.322;2023-03-19T05:40:37;100607.78;;;24.50;32.58
56518;BME280;42419;48.760;2.322;2023-03-19T05:43:06;100606.94;;;24.49;32.84
56518;BME280;42419;48.760;2.322;2023-03-19T05:45:31;100596.50;;;24.43;32.48
56518;BME280;42419;48.760;2.322;2023-03-19T05:47:57;100604.50;;;24.45;32.27
56518;BME280;42419;48.760;2.322;2023-03-19T05:50:22;100538.47;;;24.09;32.58
56518;BME280;42419;48.760;2.322;2023-03-19T05:52:47;100617.59;;;24.51;32.61
56518;BME280;42419;48.760;2.322;2023-03-19T05:55:13;100620.28;;;24.51;32.75
56518;BME280;42419;48.760;2.322;2023-03-19T05:57:38;100605.91;;;24.36;32.36
56518;BME280;42419;48.760;2.322;2023-03-19T06:00:05;100620.47;;;24.48;32.74
56518;BME280;42419;48.760;2.322;2023-03-19T06:02:32;100609.16;;;24.41;32.75
56518;BME280;42419;48.760;2.322;2023-03-19T06:04:57;100629.22;;;24.51;32.52
56518;BME280;42419;48.760;2.322;2023-03-19T06:07:22;100633.66;;;24.52;32.51
56518;BME280;42419;48.760;2.322;2023-03-19T06:09:48;100638.00;;;24.55;32.96
56518;BME280;42419;48.760;2.322;2023-03-19T06:12:13;100628.97;;;24.56;32.58
56518;BME280;42419;48.760;2.322;2023-03-19T06:14:39;100638.00;;;24.55;32.87
56518;BME280;42419;48.760;2.322;2023-03-19T06:17:04;100633.66;;;24.52;32.56
56518;BME280;42419;48.760;2.322;2023-03-19T06:19:29;100569.50;;;24.15;32.96
56518;BME280;42419;48.760;2.322;2023-03-19T06:21:55;100627.66;;;24.47;32.71
56518;BME280;42419;48.760;2.322;2023-03-19T06:24:20;100638.00;;;24.55;32.83
56518;BME280;42419;48.760;2.322;2023-03-19T06:26:45;100630.19;;;24.50;32.94
56518;BME280;42419;48.760;2.322;2023-03-19T06:29:10;100637.91;;;24.56;32.59
56518;BME280;42419;48.760;2.322;2023-03-19T06:31:36;100645.19;;;24.54;32.82
56518;BME280;42419;48.760;2.322;2023-03-19T06:34:04;100650.50;;;24.56;32.81
56518;BME280;42419;48.760;2.322;2023-03-19T06:36:29;100636.00;;;24.43;32.70
56518;BME280;42419;48.760;2.322;2023-03-19T06:38:55;100672.72;;;24.59;32.70
56518;BME280;42419;48.760;2.322;2023-03-19T06:41:20;100671.84;;;24.59;32.95
56518;BME280;42419;48.760;2.322;2023-03-19T06:43:46;100683.47;;;24.59;32.89
56518;BME280;42419;48.760;2.322;2023-03-19T06:46:12;100678.88;;;24.62;33.13
56518;BME280;42419;48.760;2.322;2023-03-19T06:48:37;100667.09;;;24.48;33.08
56518;BME280;42419;48.760;2.322;2023-03-19T06:51:03;100607.16;;;24.15;33.18
56518;BME280;42419;48.760;2.322;2023-03-19T06:53:29;100613.94;;;24.22;33.35
56518;BME280;42419;48.760;2.322;2023-03-19T06:55:54;100687.84;;;24.62;32.97
56518;BME280;42419;48.760;2.322;2023-03-19T06:58:20;100700.41;;;24.62;33.52
56518;BME280;42419;48.760;2.322;2023-03-19T07:00:46;100689.94;;;24.57;33.13
56518;BME280;42419;48.760;2.322;2023-03-19T07:03:11;100695.72;;;24.65;33.26
56518;BME280;42419;48.760;2.322;2023-03-19T07:05:36;100638.38;;;24.33;33.26
56518;BME280;42419;48.760;2.322;2023-03-19T07:08:02;100707.94;;;24.71;32.83
56518;BME280;42419;48.760;2.322;2023-03-19T07:10:27;100695.09;;;24.76;33.22
56518;BME280;42419;48.760;2.322;2023-03-19T07:12:52;100691.41;;;24.77;33.18
56518;BME280;42419;48.760;2.322;2023-03-19T07:15:18;100671.13;;;24.71;33.13
56518;BME280;42419;48.760;2.322;2023-03-19T07:17:46;100684.13;;;24.79;33.46
56518;BME280;42419;48.760;2.322;2023-03-19T07:20:12;100630.34;;;24.47;33.25
56518;BME280;42419;48.760;2.322;2023-03-19T07:22:37;100681.50;;;24.77;33.09
56518;BME280;42419;48.760;2.322;2023-03-19T07:25:03;100688.56;;;24.80;32.74
56518;BME280;42419;48.760;2.322;2023-03-19T07:27:28;100665.75;;;24.71;33.47
56518;BME280;42419;48.760;2.322;2023-03-19T07:29:53;100690.09;;;24.84;33.59
56518;BME280;42419;48.760;2.322;2023-03-19T07:32:20;100677.78;;;24.80;33.27
56518;BME280;42419;48.760;2.322;2023-03-19T07:34:46;100626.03;;;24.45;33.67
56518;BME280;42419;48.760;2.322;2023-03-19T07:37:12;100693.38;;;24.89;33.50
56518;BME280;42419;48.760;2.322;2023-03-19T07:39:37;100692.44;;;24.90;33.42
56518;BME280;42419;48.760;2.322;2023-03-19T07:42:03;100700.41;;;24.91;33.35
56518;BME280;42419;48.760;2.322;2023-03-19T07:44:29;100691.66;;;24.88;33.60
56518;BME280;42419;48.760;2.322;2023-03-19T07:46:54;100685.31;;;24.89;33.79
56518;BME280;42419;48.760;2.322;2023-03-19T07:49:19;100683.50;;;24.89;33.94
56518;BME280;42419;48.760;2.322;2023-03-19T07:51:45;100696.69;;;24.94;33.87
56518;BME280;42419;48.760;2.322;2023-03-19T07:54:10;100694.94;;;24.93;33.68
56518;BME280;42419;48.760;2.322;2023-03-19T07:56:35;100689.63;;;24.91;33.77
56518;BME280;42419;48.760;2.322;2023-03-19T07:59:01;100693.88;;;24.95;34.09
56518;BME280;42419;48.760;2.322;2023-03-19T08:01:26;100697.44;;;24.96;34.08
56518;BME280;42419;48.760;2.322;2023-03-19T08:03:51;100697.44;;;24.96;34.13
56518;BME280;42419;48.760;2.322;2023-03-19T08:06:17;100703.59;;;24.98;34.12
56518;BME280;42419;48.760;2.322;2023-03-19T08:08:42;100697.63;;;24.93;34.57
56518;BME280;42419;48.760;2.322;2023-03-19T08:11:07;100705.31;;;24.99;34.89
56518;BME280;42419;48.760;2.322;2023-03-19T08:13:33;100710.69;;;24.99;34.54
56518;BME280;42419;48.760;2.322;2023-03-19T08:15:58;100701.88;;;24.97;34.50
56518;BME280;42419;48.760;2.322;2023-03-19T08:18:24;100705.31;;;24.99;34.17
56518;BME280;42419;48.760;2.322;2023-03-19T08:20:49;100707.94;;;25.00;34.43
56518;BME280;42419;48.760;2.322;2023-03-19T08:23:16;100637.53;;;24.63;34.19
56518;BME280;42419;48.760;2.322;2023-03-19T08:25:41;100705.03;;;25.03;33.98
56518;BME280;42419;48.760;2.322;2023-03-19T08:28:07;100710.34;;;25.05;34.41
56518;BME280;42419;48.760;2.322;2023-03-19T08:30:37;100709.59;;;25.03;34.60
56518;BME280;42419;48.760;2.322;2023-03-19T08:33:02;100706.09;;;25.01;34.40
56518;BME280;42419;48.760;2.322;2023-03-19T08:35:28;100711.28;;;25.04;34.04
56518;BME280;42419;48.760;2.322;2023-03-19T08:37:54;100721.19;;;25.03;34.08
56518;BME280;42419;48.760;2.322;2023-03-19T08:40:20;100649.88;;;24.67;34.12
56518;BME280;42419;48.760;2.322;2023-03-19T08:42:45;100692.25;;;24.93;34.12
56518;BME280;42419;48.760;2.322;2023-03-19T08:45:13;100718.72;;;25.00;33.57
56518;BME280;42419;48.760;2.322;2023-03-19T08:47:39;100661.00;;;24.60;33.92
56518;BME280;42419;48.760;2.322;2023-03-19T08:50:05;100727.06;;;24.96;34.30
56518;BME280;42419;48.760;2.322;2023-03-19T08:52:32;100733.41;;;24.95;34.24
56518;BME280;42419;48.760;2.322;2023-03-19T08:54:57;100745.25;;;24.92;34.03
56518;BME280;42419;48.760;2.322;2023-03-19T08:57:22;100750.72;;;24.91;34.34
56518;BME280;42419;48.760;2.322;2023-03-19T08:59:48;100757.09;;;24.90;34.60
56518;BME280;42419;48.760;2.322;2023-03-19T09:02:13;100753.69;;;24.86;34.24
56518;BME280;42419;48.760;2.322;2023-03-19T09:04:40;100763.50;;;24.87;33.92
56518;BME280;42419;48.760;2.322;2023-03-19T09:07:05;100772.25;;;24.91;34.30
56518;BME280;42419;48.760;2.322;2023-03-19T09:09:31;100778.44;;;24.93;34.34
56518;BME280;42419;48.760;2.322;2023-03-19T09:11:56;100774.09;;;24.90;34.02
56518;BME280;42419;48.760;2.322;2023-03-19T09:14:22;100778.16;;;24.97;34.42
56518;BME280;42419;48.760;2.322;2023-03-19T09:16:47;100789.91;;;24.96;34.07
56518;BME280;42419;48.760;2.322;2023-03-19T09:19:13;100803.28;;;24.98;34.21
56518;BME280;42419;48.760;2.322;2023-03-19T09:21:38;100803.16;;;24.99;34.19
56518;BME280;42419;48.760;2.322;2023-03-19T09:24:04;100783.91;;;24.91;34.18
56518;BME280;42419;48.760;2.322;2023-03-19T09:26:29;100798.56;;;25.01;34.18
56518;BME280;42419;48.760;2.322;2023-03-19T09:28:55;100804.56;;;25.07;34.44
56518;BME280;42419;48.760;2.322;2023-03-19T09:31:20;100802.56;;;25.10;33.88
56518;BME280;42419;48.760;2.322;2023-03-19T09:33:45;100797.19;;;25.10;34.24
56518;BME280;42419;48.760;2.322;2023-03-19T09:36:11;100803.50;;;25.09;34.01
56518;BME280;42419;48.760;2.322;2023-03-19T09:38:36;100809.59;;;25.13;34.23
56518;BME280;42419;48.760;2.322;2023-03-19T09:41:09;100806.56;;;25.19;35.01
56518;BME280;42419;48.760;2.322;2023-03-19T09:46:27;100792.47;;;25.14;34.71
56518;BME280;42419;48.760;2.322;2023-03-19T09:48:56;100795.97;;;25.16;35.04
56518;BME280;42419;48.760;2.322;2023-03-19T09:54:31;100789.91;;;25.12;34.58
56518;BME280;42419;48.760;2.322;2023-03-19T09:56:57;100815.03;;;25.27;34.75
56518;BME280;42419;48.760;2.322;2023-03-19T09:59:25;100812.53;;;25.24;34.38
56518;BME280;42419;48.760;2.322;2023-03-19T10:04:43;100818.69;;;25.26;35.07
56518;BME280;42419;48.760;2.322;2023-03-19T10:10:02;100822.16;;;25.28;35.11
56518;BME280;42419;48.760;2.322;2023-03-19T10:12:57;100833.03;;;25.26;35.23
56518;BME280;42419;48.760;2.322;2023-03-19T10:15:30;100827.75;;;25.25;35.09
56518;BME280;42419;48.760;2.322;2023-03-19T10:18:01;100833.16;;;25.25;34.85
56518;BME280;42419;48.760;2.322;2023-03-19T10:23:26;100827.06;;;25.21;35.19
56518;BME280;42419;48.760;2.322;2023-03-19T10:25:57;100828.78;;;25.22;34.58
56518;BME280;42419;48.760;2.322;2023-03-19T10:28:27;100817.84;;;25.10;34.63
56518;BME280;42419;48.760;2.322;2023-03-19T10:36:09;100862.06;;;24.76;32.07
56518;BME280;42419;48.760;2.322;2023-03-19T10:38:39;100855.97;;;24.56;31.90
56518;BME280;42419;48.760;2.322;2023-03-19T10:41:33;100860.09;;;24.46;31.24
56518;BME280;42419;48.760;2.322;2023-03-19T10:44:06;100853.91;;;24.29;31.45
56518;BME280;42419;48.760;2.322;2023-03-19T10:46:39;100860.84;;;24.17;31.28
56518;BME280;42419;48.760;2.322;2023-03-19T10:49:10;100869.09;;;24.14;31.05
56518;BME280;42419;48.760;2.322;2023-03-19T10:51:36;100865.22;;;24.02;31.77
56518;BME280;42419;48.760;2.322;2023-03-19T10:54:17;100870.22;;;23.93;32.01
56518;BME280;42419;48.760;2.322;2023-03-19T10:56:45;100871.22;;;23.92;31.90
56518;BME280;42419;48.760;2.322;2023-03-19T11:02:02;100875.19;;;23.83;32.05
56518;BME280;42419;48.760;2.322;2023-03-19T11:04:32;100867.06;;;23.85;32.29
56518;BME280;42419;48.760;2.322;2023-03-19T11:07:21;100862.78;;;23.81;32.52
56518;BME280;42419;48.760;2.322;2023-03-19T11:09:49;100868.34;;;23.78;32.16
56518;BME280;42419;48.760;2.322;2023-03-19T11:12:21;100856.31;;;23.67;32.11
56518;BME280;42419;48.760;2.322;2023-03-19T11:14:58;100858.47;;;23.61;32.39
56518;BME280;42419;48.760;2.322;2023-03-19T11:17:39;100873.50;;;23.65;33.02
56518;BME280;42419;48.760;2.322;2023-03-19T11:22:43;100868.50;;;23.57;33.03
56518;BME280;42419;48.760;2.322;2023-03-19T11:28:16;100881.00;;;23.58;32.13
56518;BME280;42419;48.760;2.322;2023-03-19T11:30:54;100883.84;;;23.55;31.20
56518;BME280;42419;48.760;2.322;2023-03-19T11:36:21;100882.66;;;23.44;30.12
56518;BME280;42419;48.760;2.322;2023-03-19T11:47:25;100888.66;;;23.32;30.29
56518;BME280;42419;48.760;2.322;2023-03-19T11:53:06;100902.72;;;23.71;32.34
56518;BME280;42419;48.760;2.322;2023-03-19T12:00:51;100887.69;;;24.19;31.68
56518;BME280;42419;48.760;2.322;2023-03-19T12:06:47;100898.34;;;24.53;32.58
56518;BME280;42419;48.760;2.322;2023-03-19T12:12:20;100903.59;;;24.72;30.92
56518;BME280;42419;48.760;2.322;2023-03-19T12:25:28;100905.13;;;24.91;30.93
56518;BME280;42419;48.760;2.322;2023-03-19T12:28:26;100905.81;;;24.95;30.75
56518;BME280;42419;48.760;2.322;2023-03-19T12:34:04;100907.66;;;25.10;32.06
56518;BME280;42419;48.760;2.322;2023-03-19T12:36:39;100900.19;;;25.15;31.91
56518;BME280;42419;48.760;2.322;2023-03-19T12:39:17;100900.94;;;25.17;31.71
56518;BME280;42419;48.760;2.322;2023-03-19T12:41:45;100896.88;;;25.10;31.21
56518;BME280;42419;48.760;2.322;2023-03-19T12:44:20;100907.47;;;25.13;31.58
56518;BME280;42419;48.760;2.322;2023-03-19T12:47:17;100910.16;;;25.13;31.78
56518;BME280;42419;48.760;2.322;2023-03-19T12:49:45;100902.59;;;25.04;31.75
56518;BME280;42419;48.760;2.322;2023-03-19T12:52:30;100912.22;;;25.08;31.39
56518;BME280;42419;48.760;2.322;2023-03-19T12:57:45;100913.28;;;25.05;31.71
56518;BME280;42419;48.760;2.322;2023-03-19T13:00:31;100906.16;;;25.04;31.22
56518;BME280;42419;48.760;2.322;2023-03-19T13:03:16;100901.13;;;24.98;31.88
56518;BME280;42419;48.760;2.322;2023-03-19T13:05:49;100907.38;;;24.99;31.47
56518;BME280;42419;48.760;2.322;2023-03-19T13:08:38;100910.16;;;24.97;31.33
56518;BME280;42419;48.760;2.322;2023-03-19T13:11:15;100900.59;;;24.92;30.96
56518;BME280;42419;48.760;2.322;2023-03-19T13:13:53;100909.47;;;24.94;30.49
56518;BME280;42419;48.760;2.322;2023-03-19T13:16:32;100903.31;;;24.92;31.13
56518;BME280;42419;48.760;2.322;2023-03-19T13:19:09;100909.56;;;24.92;30.58
56518;BME280;42419;48.760;2.322;2023-03-19T13:21:39;100907.94;;;24.90;31.00
56518;BME280;42419;48.760;2.322;2023-03-19T13:26:38;100896.53;;;24.85;30.47
56518;BME280;42419;48.760;2.322;2023-03-19T13:29:23;100915.75;;;24.94;31.40
56518;BME280;42419;48.760;2.322;2023-03-19T13:31:50;100896.00;;;24.78;30.86
56518;BME280;42419;48.760;2.322;2023-03-19T13:34:18;100865.94;;;24.54;30.81
56518;BME280;42419;48.760;2.322;2023-03-19T13:36:50;100922.94;;;24.94;31.34
56518;BME280;42419;48.760;2.322;2023-03-19T13:39:29;100920.25;;;24.94;30.49
56518;BME280;42419;48.760;2.322;2023-03-19T13:45:36;100931.97;;;24.93;30.09
56518;BME280;42419;48.760;2.322;2023-03-19T13:48:39;100940.06;;;24.93;30.19
56518;BME280;42419;48.760;2.322;2023-03-19T13:56:26;100950.66;;;24.80;29.48
56518;BME280;42419;48.760;2.322;2023-03-19T13:59:22;100886.97;;;24.48;28.90
56518;BME280;42419;48.760;2.322;2023-03-19T14:01:48;100945.34;;;24.79;29.03
56518;BME280;42419;48.760;2.322;2023-03-19T14:04:19;100949.53;;;24.84;29.08
56518;BME280;42419;48.760;2.322;2023-03-19T14:06:48;100884.56;;;24.42;28.72
56518;BME280;42419;48.760;2.322;2023-03-19T14:25:18;100986.03;;;24.90;27.79
56518;BME280;42419;48.760;2.322;2023-03-19T14:27:56;100976.03;;;24.92;27.58
56518;BME280;42419;48.760;2.322;2023-03-19T14:32:50;100972.31;;;24.94;27.64
56518;BME280;42419;48.760;2.322;2023-03-19T14:35:17;100973.94;;;24.97;27.77
56518;BME280;42419;48.760;2.322;2023-03-19T14:37:48;100979.09;;;25.01;27.92
56518;BME280;42419;48.760;2.322;2023-03-19T14:40:20;100974.38;;;25.05;27.84